createdAt,value
2019-04-03T00:00:43.602Z,39.67
2019-04-03T00:01:43.593Z,39.64
2019-04-03T00:02:43.757Z,39.68
2019-04-03T00:03:43.710Z,39.77
2019-04-03T00:04:43.873Z,39.68
2019-04-03T00:05:43.753Z,39.76
2019-04-03T00:06:43.635Z,39.7
2019-04-03T00:07:43.433Z,39.75
2019-04-03T00:08:43.526Z,39.65
2019-04-03T00:09:43.395Z,39.69
2019-04-03T00:10:43.427Z,39.68
2019-04-03T00:11:43.452Z,39.68
2019-04-03T00:12:43.423Z,39.61
2019-04-03T00:13:43.453Z,39.65
2019-04-03T00:14:43.481Z,39.69
2019-04-03T00:15:45.324Z,39.79
2019-04-03T00:16:46.063Z,39.73
2019-04-03T00:17:46.255Z,39.66
2019-04-03T00:18:43.793Z,39.68
2019-04-03T00:19:43.553Z,39.6
2019-04-03T00:20:43.587Z,39.7
2019-04-03T00:21:43.590Z,39.64
2019-04-03T00:22:46.825Z,39.7
2019-04-03T00:23:43.503Z,39.66
2019-04-03T00:24:43.635Z,39.74
2019-04-03T00:25:43.439Z,39.74
2019-04-03T00:26:43.474Z,39.72
2019-04-03T00:27:43.433Z,39.73
2019-04-03T00:28:43.481Z,39.68
2019-04-03T00:29:43.478Z,39.71
2019-04-03T00:30:43.772Z,39.68
2019-04-03T00:31:43.506Z,39.75
2019-04-03T00:32:43.538Z,39.72
2019-04-03T00:33:43.526Z,39.64
2019-04-03T00:34:43.507Z,39.72
2019-04-03T00:35:43.593Z,39.7
2019-04-03T00:36:43.564Z,39.73
2019-04-03T00:37:43.585Z,39.7
2019-04-03T00:38:43.404Z,39.69
2019-04-03T00:39:43.597Z,39.69
2019-04-03T00:40:43.676Z,39.7
2019-04-03T00:41:43.619Z,39.72
2019-04-03T00:42:43.640Z,39.67
2019-04-03T00:43:43.765Z,39.67
2019-04-03T00:44:43.380Z,39.63
2019-04-03T00:45:43.758Z,39.76
2019-04-03T00:46:43.409Z,39.73
2019-04-03T00:47:43.511Z,39.68
2019-04-03T00:48:43.491Z,39.71
2019-04-03T00:49:43.785Z,39.72
2019-04-03T00:50:43.410Z,39.74
2019-04-03T00:51:43.609Z,39.65
2019-04-03T00:52:43.498Z,39.74
2019-04-03T00:53:43.549Z,39.79
2019-04-03T00:54:43.405Z,39.78
2019-04-03T00:55:43.829Z,39.72
2019-04-03T00:56:43.573Z,39.73
2019-04-03T00:57:43.843Z,39.75
2019-04-03T00:58:43.657Z,39.76
2019-04-03T00:59:43.605Z,39.78
2019-04-03T01:00:43.789Z,39.75
2019-04-03T01:01:43.400Z,39.68
2019-04-03T01:02:43.427Z,39.79
2019-04-03T01:03:43.426Z,39.65
2019-04-03T01:04:43.467Z,39.64
2019-04-03T01:05:43.420Z,39.73
2019-04-03T01:06:43.481Z,39.73
2019-04-03T01:07:43.480Z,39.72
2019-04-03T01:08:43.494Z,39.74
2019-04-03T01:09:43.592Z,39.76
2019-04-03T01:10:43.730Z,39.7
2019-04-03T01:11:43.607Z,39.72
2019-04-03T01:12:43.663Z,39.71
2019-04-03T01:13:43.617Z,39.85
2019-04-03T01:14:43.803Z,39.79
2019-04-03T01:15:43.577Z,39.83
2019-04-03T01:16:43.777Z,39.83
2019-04-03T01:17:43.402Z,39.85
2019-04-03T01:18:43.628Z,39.8
2019-04-03T01:19:43.672Z,39.84
2019-04-03T01:20:43.374Z,39.83
2019-04-03T01:21:43.540Z,39.88
2019-04-03T01:22:43.410Z,39.86
2019-04-03T01:23:43.622Z,39.86
2019-04-03T01:24:43.534Z,39.77
2019-04-03T01:25:43.443Z,39.8
2019-04-03T01:26:43.445Z,39.91
2019-04-03T01:27:43.456Z,39.8
2019-04-03T01:28:43.863Z,39.83
2019-04-03T01:29:43.714Z,39.85
2019-04-03T01:30:44.799Z,39.85
2019-04-03T01:31:45.273Z,39.83
2019-04-03T01:32:47.130Z,39.91
2019-04-03T01:33:47.141Z,39.84
2019-04-03T01:34:43.807Z,39.89
2019-04-03T01:35:43.611Z,39.85
2019-04-03T01:36:43.583Z,39.91
2019-04-03T01:37:43.385Z,39.92
2019-04-03T01:38:43.452Z,39.88
2019-04-03T01:39:43.438Z,39.91
2019-04-03T01:40:43.457Z,39.83
2019-04-03T01:41:43.497Z,39.85
2019-04-03T01:42:43.456Z,39.87
2019-04-03T01:43:43.535Z,39.87
2019-04-03T01:44:43.362Z,39.89
2019-04-03T01:45:43.523Z,39.84
2019-04-03T01:46:43.512Z,39.9
2019-04-03T01:47:43.553Z,39.93
2019-04-03T01:48:43.583Z,39.86
2019-04-03T01:49:43.622Z,39.86
2019-04-03T01:50:43.572Z,39.94
2019-04-03T01:51:43.673Z,39.9
2019-04-03T01:52:43.681Z,39.89
2019-04-03T01:53:43.716Z,39.9
2019-04-03T01:54:43.764Z,39.89
2019-04-03T01:55:44.162Z,39.86
2019-04-03T01:56:43.383Z,39.87
2019-04-03T01:57:43.400Z,39.9
2019-04-03T01:58:43.439Z,39.86
2019-04-03T01:59:43.394Z,39.89
2019-04-03T02:00:43.685Z,39.86
2019-04-03T02:01:43.586Z,39.92
2019-04-03T02:02:43.511Z,39.9
2019-04-03T02:03:43.359Z,39.86
2019-04-03T02:04:43.578Z,39.88
2019-04-03T02:05:44.249Z,39.88
2019-04-03T02:06:44.440Z,39.92
2019-04-03T02:07:45.165Z,39.89
2019-04-03T02:08:45.527Z,39.88
2019-04-03T02:09:46.988Z,39.89
2019-04-03T02:10:43.564Z,39.91
2019-04-03T02:11:43.596Z,39.92
2019-04-03T02:12:43.582Z,39.84
2019-04-03T02:13:43.775Z,39.81
2019-04-03T02:14:43.374Z,39.98
2019-04-03T02:15:46.247Z,39.82
2019-04-03T02:16:43.437Z,39.87
2019-04-03T02:17:43.431Z,39.88
2019-04-03T02:18:43.457Z,39.94
2019-04-03T02:19:43.716Z,39.92
2019-04-03T02:20:43.520Z,39.94
2019-04-03T02:21:43.456Z,39.91
2019-04-03T02:22:43.519Z,39.91
2019-04-03T02:23:43.642Z,39.93
2019-04-03T02:24:43.531Z,39.92
2019-04-03T02:25:43.517Z,39.92
2019-04-03T02:26:43.972Z,39.96
2019-04-03T02:27:43.583Z,39.94
2019-04-03T02:28:43.636Z,39.89
2019-04-03T02:29:43.581Z,39.9
2019-04-03T02:30:47.257Z,39.98
2019-04-03T02:31:43.356Z,39.85
2019-04-03T02:32:43.810Z,39.87
2019-04-03T02:33:43.398Z,39.92
2019-04-03T02:34:43.407Z,39.93
2019-04-03T02:35:43.590Z,39.93
2019-04-03T02:36:45.667Z,39.88
2019-04-03T02:37:43.459Z,39.89
2019-04-03T02:38:43.440Z,39.9
2019-04-03T02:39:43.455Z,39.96
2019-04-03T02:40:43.512Z,39.9
2019-04-03T02:41:43.604Z,39.97
2019-04-03T02:42:44.679Z,39.9
2019-04-03T02:43:47.629Z,39.89
2019-04-03T02:44:43.903Z,39.99
2019-04-03T02:45:43.583Z,39.95
2019-04-03T02:46:43.580Z,39.9
2019-04-03T02:47:43.628Z,39.86
2019-04-03T02:48:43.775Z,39.93
2019-04-03T02:49:44.136Z,39.91
2019-04-03T02:50:48.024Z,39.94
2019-04-03T02:51:44.049Z,39.95
2019-04-03T02:52:43.446Z,39.96
2019-04-03T02:53:43.490Z,39.92
2019-04-03T02:54:43.863Z,39.98
2019-04-03T02:55:43.499Z,39.99
2019-04-03T02:56:46.270Z,39.98
2019-04-03T02:57:43.586Z,39.91
2019-04-03T02:58:43.688Z,39.89
2019-04-03T02:59:43.340Z,39.95
2019-04-03T03:00:43.692Z,40
2019-04-03T03:01:44.040Z,39.96
2019-04-03T03:02:46.187Z,39.96
2019-04-03T03:03:43.827Z,39.99
2019-04-03T03:04:43.937Z,39.98
2019-04-03T03:05:43.668Z,39.97
2019-04-03T03:06:43.963Z,39.93
2019-04-03T03:07:43.363Z,39.97
2019-04-03T03:08:43.419Z,40.01
2019-04-03T03:09:47.697Z,39.98
2019-04-03T03:10:43.578Z,39.99
2019-04-03T03:11:43.513Z,40
2019-04-03T03:12:43.421Z,39.99
2019-04-03T03:13:43.509Z,39.97
2019-04-03T03:14:43.905Z,40.04
2019-04-03T03:15:45.452Z,40.01
2019-04-03T03:16:43.816Z,40
2019-04-03T03:17:43.552Z,39.98
2019-04-03T03:18:43.563Z,40.06
2019-04-03T03:19:43.739Z,40.02
2019-04-03T03:20:43.506Z,40.03
2019-04-03T03:21:45.615Z,40.04
2019-04-03T03:22:43.672Z,40.05
2019-04-03T03:23:43.671Z,39.99
2019-04-03T03:24:44.079Z,39.99
2019-04-03T03:25:43.409Z,40.04
2019-04-03T03:26:43.370Z,39.98
2019-04-03T03:27:43.415Z,40.01
2019-04-03T03:28:47.839Z,40.04
2019-04-03T03:29:43.965Z,40
2019-04-03T03:31:01.343Z,40.07
2019-04-03T03:32:14.410Z,40.01
2019-04-03T03:32:44.236Z,39.99
2019-04-03T03:33:43.984Z,40.03
2019-04-03T03:35:07.386Z,40.04
2019-04-03T03:35:49.076Z,40.04
2019-04-03T03:36:44.622Z,39.98
2019-04-03T03:37:44.073Z,40.06
2019-04-03T03:38:44.457Z,40.03
2019-04-03T03:39:44.735Z,40.01
2019-04-03T03:40:48.708Z,40.04
2019-04-03T03:41:43.779Z,40.02
2019-04-03T03:42:43.658Z,40.06
2019-04-03T03:43:43.334Z,40.03
2019-04-03T03:44:46.728Z,40.04
2019-04-03T03:45:43.824Z,39.98
2019-04-03T03:46:43.461Z,40.02
2019-04-03T03:47:43.409Z,39.95
2019-04-03T03:48:45.757Z,40.02
2019-04-03T03:49:43.586Z,39.94
2019-04-03T03:50:43.563Z,40
2019-04-03T03:51:43.876Z,40.02
2019-04-03T03:52:43.512Z,40
2019-04-03T03:53:46.110Z,39.99
2019-04-03T03:54:43.474Z,40
2019-04-03T03:55:43.792Z,39.94
2019-04-03T03:56:44.014Z,39.94
2019-04-03T03:57:43.515Z,40.03
2019-04-03T03:58:46.446Z,40
2019-04-03T03:59:43.920Z,39.9
2019-04-03T04:00:43.634Z,39.96
2019-04-03T04:01:43.940Z,39.93
2019-04-03T04:02:50.907Z,39.98
2019-04-03T04:03:43.423Z,39.96
2019-04-03T04:04:48.795Z,39.98
2019-04-03T04:05:43.906Z,39.98
2019-04-03T04:06:43.394Z,39.87
2019-04-03T04:07:43.414Z,40.01
2019-04-03T04:08:45.845Z,39.99
2019-04-03T04:09:43.584Z,40.04
2019-04-03T04:10:43.571Z,39.99
2019-04-03T04:11:43.585Z,40
2019-04-03T04:12:44.117Z,39.97
2019-04-03T04:13:49.475Z,40.02
2019-04-03T04:14:43.587Z,40.06
2019-04-03T04:15:43.933Z,40.02
2019-04-03T04:16:43.692Z,40.04
2019-04-03T04:17:43.612Z,40.03
2019-04-03T04:18:43.668Z,40.11
2019-04-03T04:19:43.964Z,40.06
2019-04-03T04:20:43.566Z,40.04
2019-04-03T04:21:45.343Z,40.08
2019-04-03T04:22:43.370Z,40.03
2019-04-03T04:23:44.503Z,40.07
2019-04-03T04:24:43.397Z,40.05
2019-04-03T04:25:44.721Z,40.08
2019-04-03T04:26:43.445Z,40.08
2019-04-03T04:27:43.589Z,40.02
2019-04-03T04:28:43.418Z,40.04
2019-04-03T04:29:43.578Z,40.04
2019-04-03T04:30:43.734Z,40.1
2019-04-03T04:31:44.571Z,40.1
2019-04-03T04:32:46.926Z,40.1
2019-04-03T04:33:43.617Z,40.05
2019-04-03T04:34:43.866Z,40.06
2019-04-03T04:35:43.566Z,40.04
2019-04-03T04:36:43.575Z,40.01
2019-04-03T04:37:43.401Z,40.03
2019-04-03T04:38:43.491Z,40.03
2019-04-03T04:39:43.482Z,40.03
2019-04-03T04:40:43.712Z,40.05
2019-04-03T04:41:43.708Z,40.07
2019-04-03T04:42:43.519Z,39.99
2019-04-03T04:43:43.470Z,40.01
2019-04-03T04:44:43.530Z,40.03
2019-04-03T04:45:43.467Z,40.03
2019-04-03T04:46:45.019Z,40.01
2019-04-03T04:47:46.478Z,40.08
2019-04-03T04:48:43.577Z,39.99
2019-04-03T04:49:43.611Z,40.06
2019-04-03T04:50:43.637Z,40.05
2019-04-03T04:51:43.648Z,40.02
2019-04-03T04:52:43.490Z,41.13
2019-04-03T04:53:43.489Z,41.27
2019-04-03T04:54:43.341Z,41.73
2019-04-03T04:55:43.324Z,41.86
2019-04-03T04:56:43.366Z,42.08
2019-04-03T04:57:43.473Z,42.17
2019-04-03T04:58:44.037Z,42.42
2019-04-03T04:59:45.570Z,42.48
2019-04-03T05:00:47.657Z,42.41
2019-04-03T05:01:43.591Z,42.69
2019-04-03T05:02:43.485Z,42.65
2019-04-03T05:03:43.434Z,42.73
2019-04-03T05:04:43.778Z,42.84
2019-04-03T05:05:43.679Z,43.08
2019-04-03T05:06:43.519Z,43.21
2019-04-03T05:07:43.797Z,43.26
2019-04-03T05:08:43.612Z,43.7
2019-04-03T05:09:43.449Z,43.5
2019-04-03T05:10:43.379Z,43.42
2019-04-03T05:11:43.722Z,43.57
2019-04-03T05:12:45.715Z,43.49
2019-04-03T05:13:46.687Z,43.49
2019-04-03T05:14:43.557Z,43.67
2019-04-03T05:15:43.503Z,43.71
2019-04-03T05:16:43.454Z,43.85
2019-04-03T05:17:43.562Z,43.87
2019-04-03T05:18:43.551Z,43.92
2019-04-03T05:19:43.474Z,44.02
2019-04-03T05:20:43.545Z,44.03
2019-04-03T05:21:43.498Z,44.08
2019-04-03T05:22:43.688Z,43.8
2019-04-03T05:23:43.912Z,44.03
2019-04-03T05:24:43.625Z,43.77
2019-04-03T05:25:43.545Z,44.02
2019-04-03T05:26:43.463Z,43.93
2019-04-03T05:27:43.303Z,44.12
2019-04-03T05:28:57.420Z,44.01
2019-04-03T05:29:43.324Z,44.08
2019-04-03T05:30:43.337Z,44.07
2019-04-03T05:31:43.466Z,44.11
2019-04-03T05:32:43.339Z,44.11
2019-04-03T05:33:43.412Z,44.2
2019-04-03T05:34:44.763Z,44.23
2019-04-03T05:35:46.497Z,44.29
2019-04-03T05:36:44.107Z,44.44
2019-04-03T05:37:43.740Z,44.44
2019-04-03T05:38:43.452Z,44.68
2019-04-03T05:39:43.586Z,44.58
2019-04-03T05:40:43.538Z,44.55
2019-04-03T05:41:43.531Z,44.78
2019-04-03T05:42:44.148Z,44.97
2019-04-03T05:43:43.644Z,44.94
2019-04-03T05:44:43.388Z,44.84
2019-04-03T05:45:43.412Z,44.84
2019-04-03T05:46:43.402Z,44.84
2019-04-03T05:47:43.703Z,44.95
2019-04-03T05:48:43.381Z,44.98
2019-04-03T05:49:47.271Z,44.82
2019-04-03T05:50:43.430Z,44.96
2019-04-03T05:51:43.702Z,45.05
2019-04-03T05:52:43.710Z,45.02
2019-04-03T05:53:43.514Z,44.96
2019-04-03T05:54:45.025Z,45.06
2019-04-03T05:55:43.487Z,45.11
2019-04-03T05:56:43.583Z,44.98
2019-04-03T05:57:46.248Z,44.94
2019-04-03T05:58:57.073Z,44.96
2019-04-03T05:59:44.680Z,45.11
2019-04-03T06:00:43.669Z,44.91
2019-04-03T06:01:47.249Z,45.34
2019-04-03T06:02:43.304Z,45.27
2019-04-03T06:03:45.881Z,45.08
2019-04-03T06:04:43.635Z,45.02
2019-04-03T06:05:44.694Z,45.24
2019-04-03T06:06:47.270Z,44.94
2019-04-03T06:07:43.361Z,44.86
2019-04-03T06:08:43.393Z,44.71
2019-04-03T06:09:43.436Z,44.73
2019-04-03T06:10:43.490Z,44.62
2019-04-03T06:11:43.525Z,44.15
2019-04-03T06:12:46.368Z,43.91
2019-04-03T06:13:43.457Z,43.56
2019-04-03T06:14:43.563Z,43.45
2019-04-03T06:15:43.982Z,43.29
2019-04-03T06:16:43.511Z,43.09
2019-04-03T06:17:43.372Z,43.06
2019-04-03T06:18:48.246Z,42.97
2019-04-03T06:19:43.401Z,42.83
2019-04-03T06:20:44.114Z,42.74
2019-04-03T06:21:46.629Z,42.78
2019-04-03T06:22:43.687Z,42.65
2019-04-03T06:23:43.498Z,42.61
2019-04-03T06:24:43.403Z,42.47
2019-04-03T06:25:43.843Z,42.49
2019-04-03T06:26:45.091Z,42.43
2019-04-03T06:27:46.448Z,42.35
2019-04-03T06:28:47.823Z,42.48
2019-04-03T06:29:43.580Z,42.37
2019-04-03T06:30:43.775Z,42.34
2019-04-03T06:31:43.648Z,42.37
2019-04-03T06:32:43.570Z,42.26
2019-04-03T06:33:43.439Z,42.12
2019-04-03T06:34:44.177Z,42.18
2019-04-03T06:35:46.214Z,42.16
2019-04-03T06:36:43.280Z,42.09
2019-04-03T06:37:43.363Z,42.09
2019-04-03T06:38:43.447Z,42.1
2019-04-03T06:39:43.640Z,42.01
2019-04-03T06:40:43.367Z,42.04
2019-04-03T06:41:43.531Z,42.08
2019-04-03T06:42:45.711Z,41.95
2019-04-03T06:43:43.664Z,41.98
2019-04-03T06:44:43.878Z,41.87
2019-04-03T06:45:44.498Z,41.81
2019-04-03T06:46:43.434Z,41.81
2019-04-03T06:47:43.397Z,41.75
2019-04-03T06:48:43.489Z,41.8
2019-04-03T06:49:43.632Z,41.65
2019-04-03T06:50:43.818Z,41.65
2019-04-03T06:51:43.322Z,41.6
2019-04-03T06:52:43.283Z,41.72
2019-04-03T06:53:43.635Z,41.69
2019-04-03T06:54:45.193Z,41.86
2019-04-03T06:55:43.340Z,41.71
2019-04-03T06:56:43.370Z,41.64
2019-04-03T06:57:43.434Z,41.58
2019-04-03T06:58:45.179Z,41.73
2019-04-03T06:59:43.317Z,41.66
2019-04-03T07:00:47.283Z,41.78
2019-04-03T07:01:43.548Z,41.6
2019-04-03T07:02:43.441Z,41.61
2019-04-03T07:03:43.295Z,41.62
2019-04-03T07:04:43.543Z,41.79
2019-04-03T07:05:43.905Z,41.73
2019-04-03T07:06:45.744Z,41.7
2019-04-03T07:07:43.940Z,41.71
2019-04-03T07:08:43.847Z,41.7
2019-04-03T07:09:43.374Z,41.79
2019-04-03T07:10:55.512Z,41.74
2019-04-03T07:11:44.175Z,41.78
2019-04-03T07:12:43.505Z,41.7
2019-04-03T07:13:43.378Z,41.69
2019-04-03T07:14:43.493Z,41.7
2019-04-03T07:15:43.451Z,41.69
2019-04-03T07:16:43.418Z,41.63
2019-04-03T07:17:43.706Z,41.56
2019-04-03T07:18:43.525Z,41.62
2019-04-03T07:19:43.579Z,41.65
2019-04-03T07:20:43.517Z,41.65
2019-04-03T07:21:43.422Z,41.6
2019-04-03T07:22:43.403Z,41.63
2019-04-03T07:23:43.517Z,41.54
2019-04-03T07:24:43.475Z,41.61
2019-04-03T07:25:43.492Z,41.54
2019-04-03T07:26:43.977Z,41.57
2019-04-03T07:27:43.574Z,41.57
2019-04-03T07:28:44.099Z,41.54
2019-04-03T07:29:43.283Z,41.49
2019-04-03T07:30:43.399Z,41.54
2019-04-03T07:31:43.415Z,41.48
2019-04-03T07:32:43.608Z,41.45
2019-04-03T07:33:43.357Z,41.53
2019-04-03T07:34:43.521Z,41.45
2019-04-03T07:35:43.539Z,41.51
2019-04-03T07:36:46.470Z,41.47
2019-04-03T07:37:43.851Z,41.45
2019-04-03T07:38:43.462Z,41.39
2019-04-03T07:39:43.541Z,41.46
2019-04-03T07:40:43.604Z,41.42
2019-04-03T07:41:43.517Z,41.44
2019-04-03T07:42:43.616Z,41.36
2019-04-03T07:43:43.687Z,41.38
2019-04-03T07:44:43.350Z,41.41
2019-04-03T07:45:44.145Z,41.36
2019-04-03T07:46:43.710Z,41.38
2019-04-03T07:47:43.513Z,41.36
2019-04-03T07:48:43.621Z,41.39
2019-04-03T07:49:43.394Z,41.28
2019-04-03T07:50:44.338Z,41.37
2019-04-03T07:51:44.583Z,41.32
2019-04-03T07:52:43.481Z,41.31
2019-04-03T07:53:43.411Z,41.32
2019-04-03T07:54:43.664Z,41.29
2019-04-03T07:55:44.490Z,41.31
2019-04-03T07:56:43.403Z,41.3
2019-04-03T07:57:43.410Z,41.29
2019-04-03T07:58:43.451Z,41.24
2019-04-03T07:59:43.425Z,41.26
2019-04-03T08:00:43.602Z,41.18
2019-04-03T08:01:43.618Z,41.26
2019-04-03T08:02:49.655Z,41.2
2019-04-03T08:03:43.256Z,41.22
2019-04-03T08:04:43.262Z,41.19
2019-04-03T08:05:43.276Z,41.22
2019-04-03T08:06:43.315Z,41.23
2019-04-03T08:07:43.651Z,41.19
2019-04-03T08:08:43.400Z,41.22
2019-04-03T08:09:43.342Z,41.23
2019-04-03T08:10:43.338Z,41.17
2019-04-03T08:11:43.475Z,41.27
2019-04-03T08:12:43.435Z,41.23
2019-04-03T08:13:43.416Z,41.2
2019-04-03T08:14:43.415Z,41.19
2019-04-03T08:15:45.464Z,41.24
2019-04-03T08:16:43.452Z,41.16
2019-04-03T08:17:43.450Z,41.35
2019-04-03T08:18:43.236Z,41.33
2019-04-03T08:19:46.046Z,41.81
2019-04-03T08:20:43.656Z,41.75
2019-04-03T08:21:43.481Z,41.6
2019-04-03T08:22:43.240Z,41.64
2019-04-03T08:23:43.429Z,41.71
2019-04-03T08:24:43.675Z,41.65
2019-04-03T08:25:48.587Z,41.63
2019-04-03T08:26:43.278Z,41.74
2019-04-03T08:27:43.912Z,41.69
2019-04-03T08:28:43.705Z,41.7
2019-04-03T08:29:43.445Z,41.73
2019-04-03T08:30:43.631Z,41.82
2019-04-03T08:31:48.563Z,41.8
2019-04-03T08:32:43.423Z,41.74
2019-04-03T08:33:43.519Z,41.95
2019-04-03T08:34:43.620Z,42.05
2019-04-03T08:35:43.493Z,42.05
2019-04-03T08:36:44.044Z,42.02
2019-04-03T08:37:43.666Z,42.03
2019-04-03T08:38:45.519Z,42
2019-04-03T08:39:43.257Z,42.02
2019-04-03T08:40:43.687Z,41.83
2019-04-03T08:41:43.296Z,42.38
2019-04-03T08:42:43.363Z,42.15
2019-04-03T08:43:43.504Z,41.83
2019-04-03T08:44:43.294Z,41.76
2019-04-03T08:45:43.396Z,41.65
2019-04-03T08:46:44.639Z,41.68
2019-04-03T08:47:46.923Z,41.59
2019-04-03T08:48:43.402Z,41.63
2019-04-03T08:49:43.505Z,41.75
2019-04-03T08:50:43.561Z,41.65
2019-04-03T08:51:43.442Z,41.48
2019-04-03T08:52:43.531Z,41.47
2019-04-03T08:53:43.786Z,41.44
2019-04-03T08:54:43.454Z,41.41
2019-04-03T08:55:46.941Z,41.45
2019-04-03T08:56:43.459Z,41.35
2019-04-03T08:57:46.955Z,41.41
2019-04-03T08:58:46.080Z,41.34
2019-04-03T08:59:43.222Z,41.24
2019-04-03T09:00:43.341Z,41.28
2019-04-03T09:01:43.265Z,41.26
2019-04-03T09:02:44.519Z,41.22
2019-04-03T09:03:46.406Z,41.27
2019-04-03T09:04:43.318Z,41.18
2019-04-03T09:05:43.289Z,41.21
2019-04-03T09:06:43.339Z,41.21
2019-04-03T09:07:43.353Z,41.21
2019-04-03T09:08:43.378Z,41.12
2019-04-03T09:09:43.360Z,41.18
2019-04-03T09:10:43.443Z,41.2
2019-04-03T09:11:43.709Z,41.14
2019-04-03T09:12:43.418Z,41.2
2019-04-03T09:13:43.448Z,41.24
2019-04-03T09:14:43.447Z,41.22
2019-04-03T09:15:43.326Z,41.2
2019-04-03T09:16:43.435Z,41.29
2019-04-03T09:17:43.653Z,41.23
2019-04-03T09:18:43.694Z,41.25
2019-04-03T09:19:43.383Z,41.22
2019-04-03T09:20:44.554Z,41.22
2019-04-03T09:21:50.503Z,41.27
2019-04-03T09:22:43.687Z,41.21
2019-04-03T09:23:43.318Z,41.25
2019-04-03T09:24:43.369Z,41.24
2019-04-03T09:25:43.367Z,41.18
2019-04-03T09:26:43.482Z,41.2
2019-04-03T09:27:43.453Z,41.19
2019-04-03T09:28:43.421Z,41.19
2019-04-03T09:29:45.877Z,41.15
2019-04-03T09:30:43.665Z,41.13
2019-04-03T09:31:43.460Z,41.13
2019-04-03T09:32:43.528Z,41.17
2019-04-03T09:33:43.932Z,41.13
2019-04-03T09:34:43.205Z,41.11
2019-04-03T09:35:43.475Z,41.11
2019-04-03T09:36:43.276Z,41.1
2019-04-03T09:37:46.698Z,41.5
2019-04-03T09:38:43.260Z,41.61
2019-04-03T09:39:46.029Z,41.45
2019-04-03T09:40:43.734Z,41.82
2019-04-03T09:41:43.319Z,41.64
2019-04-03T09:42:43.324Z,41.73
2019-04-03T09:43:43.330Z,41.82
2019-04-03T09:44:43.484Z,41.79
2019-04-03T09:45:43.745Z,41.64
2019-04-03T09:46:45.627Z,41.58
2019-04-03T09:47:43.484Z,41.56
2019-04-03T09:48:43.666Z,42.12
2019-04-03T09:49:44.699Z,41.86
2019-04-03T09:50:47.228Z,41.71
2019-04-03T09:51:43.226Z,41.74
2019-04-03T09:52:49.996Z,41.67
2019-04-03T09:53:43.343Z,41.71
2019-04-03T09:54:43.348Z,41.65
2019-04-03T09:55:43.503Z,41.92
2019-04-03T09:57:03.176Z,41.83
2019-04-03T09:57:43.525Z,41.97
2019-04-03T09:58:43.437Z,42.23
2019-04-03T09:59:43.363Z,41.99
2019-04-03T10:00:43.752Z,42.04
2019-04-03T10:01:43.976Z,42.02
2019-04-03T10:02:43.767Z,42.01
2019-04-03T10:03:43.572Z,42.18
2019-04-03T10:04:43.576Z,42.09
2019-04-03T10:05:43.410Z,42.11
2019-04-03T10:06:43.897Z,42.18
2019-04-03T10:07:43.480Z,42.07
2019-04-03T10:08:43.605Z,42.05
2019-04-03T10:09:44.999Z,42.15
2019-04-03T10:10:43.224Z,41.94
2019-04-03T10:11:43.529Z,42.07
2019-04-03T10:12:48.916Z,41.91
2019-04-03T10:13:43.374Z,41.97
2019-04-03T10:14:43.411Z,41.96
2019-04-03T10:15:43.759Z,41.77
2019-04-03T10:16:43.186Z,41.91
2019-04-03T10:17:43.433Z,41.92
2019-04-03T10:18:43.678Z,41.95
2019-04-03T10:19:46.331Z,41.96
2019-04-03T10:20:43.330Z,41.84
2019-04-03T10:21:43.725Z,41.85
2019-04-03T10:22:43.912Z,41.96
2019-04-03T10:23:43.539Z,41.89
2019-04-03T10:24:44.130Z,41.94
2019-04-03T10:25:43.831Z,41.82
2019-04-03T10:26:43.275Z,41.75
2019-04-03T10:27:43.843Z,41.79
2019-04-03T10:28:48.140Z,41.8
2019-04-03T10:29:43.406Z,41.73
2019-04-03T10:30:43.236Z,41.85
2019-04-03T10:31:43.873Z,41.82
2019-04-03T10:32:43.677Z,41.91
2019-04-03T10:33:43.455Z,41.94
2019-04-03T10:34:43.589Z,41.92
2019-04-03T10:35:43.325Z,42.02
2019-04-03T10:36:43.913Z,41.93
2019-04-03T10:37:47.122Z,41.84
2019-04-03T10:38:43.718Z,41.81
2019-04-03T10:39:45.005Z,41.74
2019-04-03T10:40:43.443Z,41.79
2019-04-03T10:41:43.949Z,41.69
2019-04-03T10:42:43.506Z,41.55
2019-04-03T10:43:43.175Z,41.66
2019-04-03T10:44:43.360Z,41.81
2019-04-03T10:45:43.177Z,41.92
2019-04-03T10:46:43.349Z,41.82
2019-04-03T10:47:44.964Z,41.97
2019-04-03T10:48:43.483Z,41.84
2019-04-03T10:49:43.246Z,41.87
2019-04-03T10:50:43.810Z,41.86
2019-04-03T10:51:43.405Z,41.8
2019-04-03T10:52:47.606Z,41.88
2019-04-03T10:53:43.297Z,41.79
2019-04-03T10:54:43.731Z,41.83
2019-04-03T10:55:43.737Z,41.83
2019-04-03T10:56:43.491Z,41.7
2019-04-03T10:57:43.374Z,41.87
2019-04-03T10:58:44.330Z,41.76
2019-04-03T10:59:43.873Z,41.96
2019-04-03T11:00:43.775Z,42.06
2019-04-03T11:01:43.678Z,42.04
2019-04-03T11:02:43.467Z,41.81
2019-04-03T11:03:43.329Z,41.57
2019-04-03T11:04:43.302Z,41.58
2019-04-03T11:05:43.641Z,41.65
2019-04-03T11:06:43.382Z,41.64
2019-04-03T11:07:43.277Z,41.58
2019-04-03T11:08:43.557Z,41.59
2019-04-03T11:09:43.429Z,41.51
2019-04-03T11:10:43.385Z,41.53
2019-04-03T11:11:44.186Z,41.51
2019-04-03T11:12:43.389Z,41.54
2019-04-03T11:13:43.765Z,41.44
2019-04-03T11:14:43.842Z,41.46
2019-04-03T11:15:45.141Z,41.37
2019-04-03T11:16:47.262Z,41.5
2019-04-03T11:17:43.532Z,41.47
2019-04-03T11:18:43.711Z,41.52
2019-04-03T11:19:44.945Z,41.54
2019-04-03T11:20:43.153Z,41.5
2019-04-03T11:21:45.157Z,41.52
2019-04-03T11:22:44.035Z,41.45
2019-04-03T11:23:45.968Z,41.45
2019-04-03T11:24:43.547Z,41.42
2019-04-03T11:25:47.443Z,41.42
2019-04-03T11:26:43.452Z,41.47
2019-04-03T11:27:46.193Z,41.42
2019-04-03T11:28:43.771Z,41.45
2019-04-03T11:29:43.397Z,41.39
2019-04-03T11:30:43.469Z,41.41
2019-04-03T11:31:43.588Z,41.35
2019-04-03T11:32:43.905Z,41.38
2019-04-03T11:33:46.387Z,41.36
2019-04-03T11:34:43.610Z,41.34
2019-04-03T11:35:43.722Z,41.32
2019-04-03T11:36:43.385Z,41.32
2019-04-03T11:37:43.306Z,41.31
2019-04-03T11:38:43.537Z,41.36
2019-04-03T11:39:46.909Z,41.27
2019-04-03T11:40:43.216Z,41.32
2019-04-03T11:41:43.662Z,41.27
2019-04-03T11:42:43.462Z,41.36
2019-04-03T11:43:43.318Z,41.36
2019-04-03T11:44:43.273Z,41.23
2019-04-03T11:45:43.273Z,41.25
2019-04-03T11:46:43.595Z,41.25
2019-04-03T11:47:46.416Z,41.24
2019-04-03T11:48:44.022Z,41.21
2019-04-03T11:49:43.515Z,41.19
2019-04-03T11:50:43.352Z,41.25
2019-04-03T11:51:43.382Z,41.16
2019-04-03T11:52:43.414Z,41.14
2019-04-03T11:53:46.045Z,41.22
2019-04-03T11:54:43.152Z,41.13
2019-04-03T11:55:43.351Z,41.14
2019-04-03T11:56:45.948Z,41.12
2019-04-03T11:57:43.263Z,41.15
2019-04-03T11:58:43.374Z,41.15
2019-04-03T11:59:43.162Z,41.1
2019-04-03T12:00:43.303Z,41.1
2019-04-03T12:01:43.345Z,41.07
2019-04-03T12:02:45.061Z,41.09
2019-04-03T12:03:43.259Z,41.03
2019-04-03T12:04:44.747Z,41.02
2019-04-03T12:05:43.279Z,41.12
2019-04-03T12:06:43.322Z,41.07
2019-04-03T12:07:43.456Z,41.08
2019-04-03T12:08:46.094Z,41.09
2019-04-03T12:09:43.359Z,41.03
2019-04-03T12:10:43.811Z,41.08
2019-04-03T12:11:43.786Z,40.99
2019-04-03T12:12:43.884Z,41.03
2019-04-03T12:13:46.641Z,41.01
2019-04-03T12:14:43.590Z,41.04
2019-04-03T12:15:43.697Z,40.99
2019-04-03T12:16:43.613Z,41.05
2019-04-03T12:17:43.284Z,41.05
2019-04-03T12:18:43.245Z,41.02
2019-04-03T12:19:46.317Z,41.01
2019-04-03T12:20:46.623Z,41.06
2019-04-03T12:21:43.640Z,40.96
2019-04-03T12:22:43.340Z,40.96
2019-04-03T12:23:43.308Z,40.96
2019-04-03T12:24:43.972Z,41
2019-04-03T12:25:43.776Z,41.07
2019-04-03T12:26:44.726Z,41.01
2019-04-03T12:27:47.039Z,41.06
2019-04-03T12:28:43.380Z,41.01
2019-04-03T12:29:43.418Z,41.14
2019-04-03T12:30:43.815Z,41.39
2019-04-03T12:31:43.647Z,41.54
2019-04-03T12:32:49.916Z,41.5
2019-04-03T12:33:58.931Z,41.56
2019-04-03T12:34:43.167Z,41.53
2019-04-03T12:35:43.178Z,41.51
2019-04-03T12:36:46.532Z,41.5
2019-04-03T12:37:43.758Z,41.45
2019-04-03T12:38:43.253Z,41.49
2019-04-03T12:39:43.247Z,41.62
2019-04-03T12:40:43.473Z,41.45
2019-04-03T12:41:44.194Z,41.41
2019-04-03T12:42:43.326Z,41.43
2019-04-03T12:43:43.332Z,41.35
2019-04-03T12:44:43.415Z,41.27
2019-04-03T12:45:43.816Z,41.51
2019-04-03T12:46:43.618Z,41.39
2019-04-03T12:47:45.315Z,41.38
2019-04-03T12:48:43.429Z,41.48
2019-04-03T12:49:43.536Z,41.31
2019-04-03T12:50:43.275Z,41.39
2019-04-03T12:51:43.451Z,41.48
2019-04-03T12:52:45.561Z,41.38
2019-04-03T12:53:43.585Z,41.35
2019-04-03T12:54:43.471Z,41.51
2019-04-03T12:55:43.578Z,41.52